createdAt,value
2022-09-27T00:01:24.379Z,96814.97
2022-09-27T00:04:27.470Z,96820.06
2022-09-27T00:07:30.187Z,96803.44
2022-09-27T00:10:34.166Z,96810.09
2022-09-27T00:13:36.798Z,96803.47
2022-09-27T00:16:40.436Z,96807.31
2022-09-27T00:19:43.055Z,96804.13
2022-09-27T00:22:45.684Z,96798.69
2022-09-27T00:25:57.579Z,96793.31
2022-09-27T00:29:00.373Z,96806.53
2022-09-27T00:32:03.080Z,96796.75
2022-09-27T00:35:06.464Z,96801.78
2022-09-27T00:38:09.053Z,96791.66
2022-09-27T00:41:17.160Z,96793.34
2022-09-27T00:45:03.420Z,96789.41
2022-09-27T00:48:06.993Z,96783.97
2022-09-27T00:51:09.944Z,96791.00
2022-09-27T00:54:14.704Z,96778.22
2022-09-27T00:57:19.070Z,96772.41
2022-09-27T01:00:22.766Z,96763.84
2022-09-27T01:03:27.388Z,96770.03
2022-09-27T01:06:30.140Z,96771.53
2022-09-27T01:09:33.088Z,96766.28
2022-09-27T01:12:46.066Z,96772.03
2022-09-27T01:15:55.301Z,96782.22
2022-09-27T01:19:08.383Z,96784.28
2022-09-27T01:22:14.158Z,96782.06
2022-09-27T01:25:34.772Z,96773.50
2022-09-27T01:28:48.404Z,96782.84
2022-09-27T01:31:57.282Z,96791.41
2022-09-27T01:35:04.504Z,96779.06
2022-09-27T01:38:13.973Z,96772.16
2022-09-27T01:41:23.117Z,96774.59
2022-09-27T01:44:29.611Z,96773.81
2022-09-27T01:47:39.426Z,96761.53
2022-09-27T01:50:45.986Z,96772.22
2022-09-27T01:53:49.982Z,96772.63
2022-09-27T01:56:56.108Z,96774.66
2022-09-27T02:00:01.430Z,96775.94
2022-09-27T02:03:08.659Z,96774.06
2022-09-27T02:06:14.027Z,96785.41
2022-09-27T02:09:19.167Z,96773.75
2022-09-27T02:12:23.761Z,96784.31
2022-09-27T02:15:27.707Z,96787.41
2022-09-27T02:18:35.843Z,96788.34
2022-09-27T02:21:43.959Z,96790.84
2022-09-27T02:24:49.870Z,96805.59
2022-09-27T02:27:58.281Z,96804.38
2022-09-27T02:31:00.964Z,96812.56
2022-09-27T02:34:07.569Z,96831.41
2022-09-27T02:37:10.222Z,96823.09
2022-09-27T02:40:13.824Z,96829.50
2022-09-27T02:43:17.379Z,96828.75
2022-09-27T02:46:32.405Z,96820.97
2022-09-27T02:49:46.414Z,96823.06
2022-09-27T02:52:51.235Z,96815.38
2022-09-27T02:55:59.433Z,96815.66
2022-09-27T02:59:08.689Z,96829.41
2022-09-27T03:02:15.115Z,96842.53
2022-09-27T03:05:22.505Z,96834.13
2022-09-27T03:08:25.312Z,96835.25
2022-09-27T03:11:28.116Z,96837.47
2022-09-27T03:14:30.654Z,96851.50
2022-09-27T03:17:33.278Z,96853.41
2022-09-27T03:20:37.172Z,96849.69
2022-09-27T03:23:39.971Z,96863.84
2022-09-27T03:26:42.644Z,96857.84
2022-09-27T03:29:45.285Z,96864.16
2022-09-27T03:32:47.898Z,96862.00
2022-09-27T03:35:51.810Z,96868.97
2022-09-27T03:38:54.524Z,96875.53
2022-09-27T03:41:57.421Z,96876.56
2022-09-27T03:44:59.960Z,96877.09
2022-09-27T03:48:02.982Z,96868.00
2022-09-27T03:51:07.342Z,96872.50
2022-09-27T03:54:10.047Z,96867.22
2022-09-27T03:57:12.917Z,96867.75
2022-09-27T04:00:16.011Z,96869.50
2022-09-27T04:03:19.867Z,96869.94
2022-09-27T04:06:23.979Z,96866.63
2022-09-27T04:09:26.718Z,96874.31
2022-09-27T04:12:30.362Z,96875.16
2022-09-27T04:15:33.000Z,96873.59
2022-09-27T04:18:35.646Z,96882.13
2022-09-27T04:21:39.630Z,96882.91
2022-09-27T04:24:42.246Z,96883.72
2022-09-27T04:27:46.496Z,96880.50
2022-09-27T04:30:49.272Z,96887.94
2022-09-27T04:33:52.002Z,96888.03
2022-09-27T04:36:55.152Z,96886.00
2022-09-27T04:39:57.816Z,96895.41
2022-09-27T04:43:00.535Z,96892.09
2022-09-27T04:46:03.163Z,96899.50
2022-09-27T04:49:05.813Z,96893.91
2022-09-27T04:52:09.812Z,96900.28
2022-09-27T04:55:12.623Z,96905.69
2022-09-27T04:58:15.281Z,96910.91
2022-09-27T05:01:18.047Z,96918.66
2022-09-27T05:04:21.809Z,96919.38
2022-09-27T05:07:25.556Z,96920.09
2022-09-27T05:10:28.132Z,96928.78
2022-09-27T05:13:30.637Z,96939.84
2022-09-27T05:16:34.499Z,96946.94
2022-09-27T05:19:38.518Z,96949.00
2022-09-27T05:22:42.499Z,96954.03
2022-09-27T05:25:45.404Z,96945.78
2022-09-27T05:28:48.020Z,96945.78
2022-09-27T05:31:50.935Z,96954.97
2022-09-27T05:34:54.257Z,96959.22
2022-09-27T05:38:00.033Z,96969.84
2022-09-27T05:41:03.467Z,96975.22
2022-09-27T05:44:06.242Z,96986.47
2022-09-27T05:47:09.352Z,96987.19
2022-09-27T05:50:12.030Z,96992.28
2022-09-27T05:53:16.020Z,96998.09
2022-09-27T05:56:18.898Z,96995.63
2022-09-27T05:59:21.478Z,97011.72
2022-09-27T06:02:24.202Z,97015.59
2022-09-27T06:05:29.293Z,97009.59
2022-09-27T06:08:34.269Z,97022.00
2022-09-27T06:11:37.151Z,97020.84
2022-09-27T06:14:40.468Z,97029.13
2022-09-27T06:17:43.025Z,97029.13
2022-09-27T06:20:46.244Z,97034.28
2022-09-27T06:23:54.098Z,97041.63
2022-09-27T06:26:57.153Z,97046.13
2022-09-27T06:30:00.083Z,97031.59
2022-09-27T06:33:03.973Z,97037.66
2022-09-27T06:36:08.042Z,97034.97
2022-09-27T06:39:12.142Z,97045.09
2022-09-27T06:42:14.714Z,97042.00
2022-09-27T06:45:17.756Z,97053.69
2022-09-27T06:48:20.498Z,97055.88
2022-09-27T06:51:23.228Z,97064.44
2022-09-27T06:54:27.162Z,97066.78
2022-09-27T06:57:47.237Z,97071.84
2022-09-27T07:00:50.624Z,97076.84
2022-09-27T07:03:53.241Z,97068.56
2022-09-27T07:06:55.852Z,97074.78
2022-09-27T07:09:59.919Z,97075.00
2022-09-27T07:13:05.375Z,97078.59
2022-09-27T07:16:08.479Z,97079.16
2022-09-27T07:19:13.523Z,97081.16
2022-09-27T07:22:16.263Z,97081.72
2022-09-27T07:25:20.311Z,97087.72
2022-09-27T07:28:23.019Z,97102.44
2022-09-27T07:31:26.429Z,97100.56
2022-09-27T07:34:29.132Z,97101.28
2022-09-27T07:37:33.166Z,97113.44
2022-09-27T07:40:38.056Z,97113.69
2022-09-27T07:43:41.152Z,97125.63
2022-09-27T07:46:43.789Z,97125.06
2022-09-27T07:49:46.552Z,97134.78
2022-09-27T07:52:51.050Z,97146.81
2022-09-27T07:55:55.448Z,97131.63
2022-09-27T07:58:58.505Z,97137.38
2022-09-27T08:02:02.238Z,97133.75
2022-09-27T08:05:05.248Z,97132.28
2022-09-27T08:08:08.095Z,97138.78
2022-09-27T08:11:16.758Z,97154.69
2022-09-27T08:14:19.451Z,97151.06
2022-09-27T08:17:22.046Z,97162.75
2022-09-27T08:20:24.851Z,97166.56
2022-09-27T08:23:27.463Z,97169.88
2022-09-27T08:26:31.467Z,97168.00
2022-09-27T08:29:34.119Z,97165.75
2022-09-27T08:32:37.844Z,97174.03
2022-09-27T08:35:40.398Z,97168.94
2022-09-27T08:38:43.057Z,97181.03
2022-09-27T08:41:50.488Z,97178.72
2022-09-27T08:45:00.964Z,97194.00
2022-09-27T08:48:06.233Z,97183.06
2022-09-27T08:51:12.986Z,97186.94
2022-09-27T08:54:19.051Z,97185.56
2022-09-27T08:57:25.158Z,97191.03
2022-09-27T09:00:29.797Z,97187.03
2022-09-27T09:03:35.247Z,97190.94
2022-09-27T09:06:42.159Z,97207.88
2022-09-27T09:09:49.909Z,97191.13
2022-09-27T09:12:59.002Z,97197.66
2022-09-27T09:16:06.718Z,97200.09
2022-09-27T09:19:21.335Z,97199.81
2022-09-27T09:22:36.679Z,97190.38
2022-09-27T09:25:45.231Z,97197.34
2022-09-27T09:29:00.592Z,97188.31
2022-09-27T09:32:10.450Z,97181.72
2022-09-27T09:35:15.423Z,97189.34
2022-09-27T09:38:22.628Z,97192.91
2022-09-27T09:41:29.637Z,97197.88
2022-09-27T09:44:38.830Z,97186.44
2022-09-27T09:47:44.840Z,97193.16
2022-09-27T09:50:49.516Z,97182.84
2022-09-27T09:53:55.518Z,97170.84
2022-09-27T09:57:03.413Z,97180.09
2022-09-27T10:00:14.750Z,97170.78
2022-09-27T10:03:17.547Z,97167.66
2022-09-27T10:06:20.414Z,97163.13
2022-09-27T10:09:26.492Z,97164.44
2022-09-27T10:12:29.702Z,97147.28
2022-09-27T10:15:34.393Z,97156.06
2022-09-27T10:18:38.486Z,97154.81
2022-09-27T10:21:45.166Z,97154.72
2022-09-27T10:24:56.136Z,97161.28
2022-09-27T10:28:00.179Z,97157.22
2022-09-27T10:31:06.138Z,97159.19
2022-09-27T10:34:18.954Z,97161.59
2022-09-27T10:37:23.950Z,97162.13
2022-09-27T10:40:29.976Z,97161.78
2022-09-27T10:43:35.348Z,97165.88
2022-09-27T10:46:39.370Z,97158.34
2022-09-27T10:49:42.707Z,97156.59
2022-09-27T10:52:45.446Z,97150.81
2022-09-27T10:55:49.412Z,97144.34
2022-09-27T10:58:52.192Z,97131.03
2022-09-27T11:01:56.277Z,97123.72
2022-09-27T11:05:13.934Z,97135.50
2022-09-27T11:08:24.397Z,97130.91
2022-09-27T11:11:29.819Z,97123.97
2022-09-27T11:14:33.170Z,97122.47
2022-09-27T11:17:44.276Z,97118.19
2022-09-27T11:20:49.688Z,97119.66
2022-09-27T11:24:13.316Z,97108.34
2022-09-27T11:27:24.198Z,97114.25
2022-09-27T11:30:33.597Z,97110.66
2022-09-27T11:33:46.215Z,97104.81
2022-09-27T11:36:59.314Z,97105.59
2022-09-27T11:40:10.192Z,97096.09
2022-09-27T11:43:50.869Z,97100.44
2022-09-27T11:46:58.323Z,97104.88
2022-09-27T11:50:15.712Z,97096.94
2022-09-27T11:53:29.759Z,97102.03
2022-09-27T11:56:39.644Z,97111.50
2022-09-27T11:59:57.895Z,97116.97
2022-09-27T12:03:16.438Z,97141.28
2022-09-27T12:06:24.238Z,97137.72
2022-09-27T12:09:30.657Z,97153.13
2022-09-27T12:12:34.545Z,97149.84
2022-09-27T12:15:41.409Z,97137.34
2022-09-27T12:18:47.992Z,97149.47
2022-09-27T12:21:56.293Z,97159.66
2022-09-27T12:24:58.969Z,97160.13
2022-09-27T12:28:05.812Z,97164.00
2022-09-27T12:31:30.510Z,97152.88
2022-09-27T12:34:39.115Z,97151.28
2022-09-27T12:37:45.817Z,97145.00
2022-09-27T12:40:51.261Z,97149.50
2022-09-27T12:43:53.988Z,97144.94
2022-09-27T12:47:02.816Z,97139.38
2022-09-27T12:50:12.476Z,97135.81
2022-09-27T12:53:23.332Z,97132.06
2022-09-27T12:56:36.354Z,97128.91
2022-09-27T12:59:48.169Z,97132.91
2022-09-27T13:03:26.256Z,97128.00
2022-09-27T13:06:42.276Z,97128.56
2022-09-27T13:09:57.235Z,97123.66
2022-09-27T13:13:01.319Z,97121.31
2022-09-27T13:16:04.481Z,97116.97
2022-09-27T13:19:07.127Z,97108.03
2022-09-27T13:22:11.306Z,97113.91
2022-09-27T13:25:55.379Z,97105.06
2022-09-27T13:29:07.022Z,97113.03
2022-09-27T13:32:18.412Z,97109.06
2022-09-27T13:35:23.250Z,97104.97
2022-09-27T13:38:25.859Z,97121.75
2022-09-27T13:41:33.575Z,97106.63
2022-09-27T13:44:43.068Z,97110.38
2022-09-27T13:47:47.718Z,97104.25
2022-09-27T13:50:56.461Z,97109.88
2022-09-27T13:54:00.848Z,97108.16
2022-09-27T13:57:25.951Z,97097.72
2022-09-27T14:00:31.874Z,97086.41
2022-09-27T14:03:37.890Z,97085.88
2022-09-27T14:06:45.283Z,97091.72
2022-09-27T14:09:49.609Z,97105.31
2022-09-27T14:12:53.986Z,97100.81
2022-09-27T14:15:57.316Z,97127.59
2022-09-27T14:19:00.934Z,97116.38
2022-09-27T14:22:03.490Z,97108.97
2022-09-27T14:25:18.039Z,97105.88
2022-09-27T14:28:24.277Z,97115.22
2022-09-27T14:31:27.971Z,97118.19
2022-09-27T14:34:30.555Z,97111.34
2022-09-27T14:37:33.205Z,97103.94
2022-09-27T14:40:40.131Z,97105.16
2022-09-27T14:43:45.891Z,97107.03
2022-09-27T14:46:49.666Z,97101.78
2022-09-27T14:49:53.644Z,97100.22
2022-09-27T14:52:59.444Z,97111.94
2022-09-27T14:56:02.998Z,97108.88
2022-09-27T14:59:09.291Z,97105.94
2022-09-27T15:02:20.147Z,97111.25
2022-09-27T15:05:24.873Z,97118.81
2022-09-27T15:08:30.262Z,97095.53
2022-09-27T15:11:33.611Z,97098.97
2022-09-27T15:14:41.102Z,97108.75
2022-09-27T15:17:44.818Z,97113.03
2022-09-27T15:20:54.517Z,97113.78
2022-09-27T15:23:58.777Z,97106.09
2022-09-27T15:27:01.341Z,97100.63
2022-09-27T15:30:06.392Z,97117.88
2022-09-27T15:33:20.534Z,97124.06
2022-09-27T15:36:52.164Z,97118.53
2022-09-27T15:39:54.965Z,97126.34
2022-09-27T15:42:59.399Z,97122.72
2022-09-27T15:46:05.512Z,97115.63
2022-09-27T15:49:33.543Z,97125.34
2022-09-27T15:52:43.459Z,97119.31
2022-09-27T15:55:46.140Z,97124.06
2022-09-27T15:58:48.662Z,97130.03
2022-09-27T16:01:56.375Z,97119.81
2022-09-27T16:04:59.210Z,97129.78
2022-09-27T16:08:02.453Z,97130.53
2022-09-27T16:11:05.734Z,97133.25
2022-09-27T16:14:08.366Z,97126.13
2022-09-27T16:17:12.356Z,97124.06
2022-09-27T16:20:19.486Z,97144.66
2022-09-27T16:23:22.060Z,97125.56
2022-09-27T16:26:24.571Z,97137.00
2022-09-27T16:29:27.441Z,97154.63
2022-09-27T16:32:31.310Z,97140.09
2022-09-27T16:35:33.948Z,97139.59
2022-09-27T16:38:36.551Z,97151.13
2022-09-27T16:41:41.104Z,97135.41
2022-09-27T16:44:43.901Z,97135.91
2022-09-27T16:47:48.044Z,97134.34
2022-09-27T16:51:08.454Z,97132.22
2022-09-27T16:54:11.210Z,97132.84
2022-09-27T16:57:14.181Z,97131.34
2022-09-27T17:00:17.405Z,97136.59
2022-09-27T17:03:21.551Z,97140.38
2022-09-27T17:06:24.467Z,97144.13
2022-09-27T17:09:27.317Z,97155.69
2022-09-27T17:12:29.958Z,97149.38
2022-09-27T17:15:32.607Z,97150.31
2022-09-27T17:18:36.617Z,97148.91
2022-09-27T17:21:39.624Z,97152.56
2022-09-27T17:24:42.310Z,97154.72
2022-09-27T17:27:45.026Z,97154.91
2022-09-27T17:30:47.797Z,97163.59
2022-09-27T17:33:57.429Z,97152.31
2022-09-27T17:37:01.550Z,97161.09
2022-09-27T17:40:04.567Z,97153.69
2022-09-27T17:43:07.320Z,97141.81
2022-09-27T17:46:11.293Z,97139.72
2022-09-27T17:49:33.271Z,97148.34
2022-09-27T17:52:36.040Z,97153.59
2022-09-27T17:55:38.799Z,97158.19
2022-09-27T17:58:41.655Z,97166.94
2022-09-27T18:01:45.394Z,97165.81
2022-09-27T18:04:49.464Z,97179.28
2022-09-27T18:07:52.109Z,97174.25
2022-09-27T18:10:55.176Z,97178.41
2022-09-27T18:14:00.498Z,97185.50
2022-09-27T18:17:03.074Z,97179.75
2022-09-27T18:20:07.902Z,97183.63
2022-09-27T18:23:10.755Z,97175.03
2022-09-27T18:26:13.297Z,97187.41
2022-09-27T18:29:18.161Z,97188.19
2022-09-27T18:32:20.809Z,97191.38
2022-09-27T18:35:24.843Z,97182.13
2022-09-27T18:38:27.524Z,97168.00
2022-09-27T18:41:32.063Z,97182.84
2022-09-27T18:44:34.974Z,97186.00
2022-09-27T18:47:37.568Z,97185.28
2022-09-27T18:50:41.587Z,97185.53
2022-09-27T18:53:44.898Z,97180.78
2022-09-27T18:56:48.488Z,97182.06
2022-09-27T18:59:51.921Z,97192.78
2022-09-27T19:02:54.651Z,97188.91
2022-09-27T19:05:59.689Z,97187.91
2022-09-27T19:09:03.740Z,97197.13
2022-09-27T19:12:06.506Z,97203.03
2022-09-27T19:15:10.683Z,97202.47
2022-09-27T19:18:13.477Z,97212.34
2022-09-27T19:21:18.771Z,97207.72
2022-09-27T19:24:21.922Z,97212.03
2022-09-27T19:27:24.449Z,97214.63
2022-09-27T19:30:27.309Z,97216.66
2022-09-27T19:33:30.083Z,97210.53
2022-09-27T19:36:34.248Z,97206.47
2022-09-27T19:39:36.777Z,97209.22
2022-09-27T19:42:39.434Z,97215.00
2022-09-27T19:45:42.170Z,97206.03
2022-09-27T19:48:46.188Z,97209.19
2022-09-27T19:51:52.060Z,97206.25
2022-09-27T19:54:54.759Z,97199.19
2022-09-27T19:57:58.021Z,97197.44
2022-09-27T20:01:02.608Z,97200.56
2022-09-27T20:04:05.741Z,97200.91
2022-09-27T20:07:09.814Z,97199.38
2022-09-27T20:10:12.823Z,97189.50
2022-09-27T20:13:15.384Z,97183.84
2022-09-27T20:16:19.504Z,97173.84
2022-09-27T20:19:22.658Z,97176.00
2022-09-27T20:22:26.525Z,97165.25
2022-09-27T20:25:29.643Z,97164.03
2022-09-27T20:28:32.342Z,97172.28
2022-09-27T20:31:37.911Z,97164.69
2022-09-27T20:34:41.199Z,97162.75
2022-09-27T20:37:45.170Z,97172.06
2022-09-27T20:40:54.160Z,97165.69
2022-09-27T20:43:58.346Z,97166.38
2022-09-27T20:47:00.938Z,97162.53
2022-09-27T20:50:04.238Z,97159.59
2022-09-27T20:53:08.310Z,97161.84
2022-09-27T20:56:17.449Z,97146.75
2022-09-27T20:59:21.846Z,97158.31
2022-09-27T21:02:24.858Z,97145.63
2022-09-27T21:05:27.514Z,97144.84
2022-09-27T21:08:33.119Z,97156.63
2022-09-27T21:11:36.052Z,97161.16
2022-09-27T21:14:38.819Z,97155.59
2022-09-27T21:17:41.430Z,97145.63
2022-09-27T21:20:44.722Z,97144.19
2022-09-27T21:23:49.289Z,97128.94
2022-09-27T21:26:53.276Z,97133.81
2022-09-27T21:29:55.754Z,97133.69
2022-09-27T21:32:58.825Z,97133.22
2022-09-27T21:36:02.126Z,97129.19
2022-09-27T21:39:08.342Z,97135.19
2022-09-27T21:42:10.924Z,97135.84
2022-09-27T21:45:13.510Z,97131.03
2022-09-27T21:48:16.244Z,97134.72
2022-09-27T21:51:20.935Z,97128.50
2022-09-27T21:54:24.958Z,97137.38
2022-09-27T21:57:27.691Z,97126.84
2022-09-27T22:00:30.389Z,97126.97
2022-09-27T22:03:35.205Z,97125.41
2022-09-27T22:06:39.288Z,97123.19
2022-09-27T22:09:43.192Z,97114.41
2022-09-27T22:12:45.754Z,97105.34
2022-09-27T22:15:50.312Z,97101.03
2022-09-27T22:18:54.784Z,97094.09
2022-09-27T22:21:57.318Z,97090.81
2022-09-27T22:25:01.432Z,97084.31
2022-09-27T22:28:04.389Z,97086.44
2022-09-27T22:31:08.212Z,97083.16
2022-09-27T22:34:17.115Z,97072.56
2022-09-27T22:37:19.978Z,97066.13
2022-09-27T22:40:23.999Z,97060.34
2022-09-27T22:43:27.242Z,97050.72
2022-09-27T22:46:30.049Z,97045.34
2022-09-27T22:49:32.608Z,97043.34
2022-09-27T22:52:35.716Z,97031.22
2022-09-27T22:55:39.631Z,97018.97
2022-09-27T22:58:43.942Z,97021.47
2022-09-27T23:01:46.630Z,97009.47
2022-09-27T23:04:49.869Z,97011.03
2022-09-27T23:07:53.401Z,97014.63
2022-09-27T23:11:03.965Z,97011.59
2022-09-27T23:14:06.979Z,97014.03
2022-09-27T23:17:09.575Z,97002.34
2022-09-27T23:20:13.490Z,96992.19
2022-09-27T23:23:16.176Z,96985.09
2022-09-27T23:26:24.083Z,96973.31
2022-09-27T23:29:26.783Z,96970.19
2022-09-27T23:32:31.786Z,96967.72
2022-09-27T23:35:34.941Z,96956.66
2022-09-27T23:38:40.241Z,96958.59
2022-09-27T23:41:44.246Z,96960.34
2022-09-27T23:44:46.762Z,96951.75
2022-09-27T23:47:49.533Z,96939.09
2022-09-27T23:50:53.076Z,96936.91
2022-09-27T23:53:57.281Z,96929.38
2022-09-27T23:57:01.443Z,96916.88
